sensor_id;sensor_type;location;lat;lon;timestamp;P1;durP1;ratioP1;P2;durP2;ratioP2
21128;SDS011;10722;51.910;8.352;2023-05-14T00:01:34;17.73;;;10.15;;
21128;SDS011;10722;51.910;8.352;2023-05-14T00:04:21;18.83;;;10.10;;
21128;SDS011;10722;51.910;8.352;2023-05-14T00:07:06;17.95;;;11.25;;
21128;SDS011;10722;51.910;8.352;2023-05-14T00:09:51;18.52;;;11.35;;
21128;SDS011;10722;51.910;8.352;2023-05-14T00:12:36;18.13;;;10.85;;
21128;SDS011;10722;51.910;8.352;2023-05-14T00:15:21;17.70;;;10.35;;
21128;SDS011;10722;51.910;8.352;2023-05-14T00:18:06;17.27;;;10.85;;
21128;SDS011;10722;51.910;8.352;2023-05-14T00:20:52;17.95;;;9.35;;
21128;SDS011;10722;51.910;8.352;2023-05-14T00:23:37;19.15;;;9.38;;
21128;SDS011;10722;51.910;8.352;2023-05-14T00:26:22;17.40;;;10.73;;
21128;SDS011;10722;51.910;8.352;2023-05-14T00:29:07;20.77;;;11.40;;
21128;SDS011;10722;51.910;8.352;2023-05-14T00:31:52;18.55;;;11.60;;
21128;SDS011;10722;51.910;8.352;2023-05-14T00:34:37;17.52;;;10.32;;
21128;SDS011;10722;51.910;8.352;2023-05-14T00:37:22;21.15;;;9.77;;
21128;SDS011;10722;51.910;8.352;2023-05-14T00:40:07;18.42;;;10.35;;
21128;SDS011;10722;51.910;8.352;2023-05-14T00:42:53;18.00;;;11.50;;
21128;SDS011;10722;51.910;8.352;2023-05-14T00:45:39;20.38;;;11.38;;
21128;SDS011;10722;51.910;8.352;2023-05-14T00:48:25;18.67;;;11.88;;
21128;SDS011;10722;51.910;8.352;2023-05-14T00:51:10;19.15;;;12.30;;
21128;SDS011;10722;51.910;8.352;2023-05-14T00:53:55;21.30;;;12.57;;
21128;SDS011;10722;51.910;8.352;2023-05-14T00:56:41;18.17;;;11.88;;
21128;SDS011;10722;51.910;8.352;2023-05-14T00:59:29;19.30;;;11.32;;
21128;SDS011;10722;51.910;8.352;2023-05-14T01:02:14;18.52;;;11.85;;
21128;SDS011;10722;51.910;8.352;2023-05-14T01:04:59;19.90;;;12.23;;
21128;SDS011;10722;51.910;8.352;2023-05-14T01:07:56;20.08;;;11.80;;
21128;SDS011;10722;51.910;8.352;2023-05-14T01:10:51;20.52;;;12.05;;
21128;SDS011;10722;51.910;8.352;2023-05-14T01:13:46;19.48;;;13.38;;
21128;SDS011;10722;51.910;8.352;2023-05-14T01:16:37;20.50;;;12.85;;
21128;SDS011;10722;51.910;8.352;2023-05-14T01:19:42;20.05;;;13.27;;
21128;SDS011;10722;51.910;8.352;2023-05-14T01:22:28;19.88;;;12.98;;
21128;SDS011;10722;51.910;8.352;2023-05-14T01:25:13;21.40;;;13.07;;
21128;SDS011;10722;51.910;8.352;2023-05-14T01:28:10;20.33;;;12.63;;
21128;SDS011;10722;51.910;8.352;2023-05-14T01:33:58;21.35;;;13.15;;
21128;SDS011;10722;51.910;8.352;2023-05-14T01:36:46;22.63;;;13.60;;
21128;SDS011;10722;51.910;8.352;2023-05-14T01:39:34;19.90;;;12.45;;
21128;SDS011;10722;51.910;8.352;2023-05-14T01:42:21;20.83;;;12.70;;
21128;SDS011;10722;51.910;8.352;2023-05-14T01:45:07;21.20;;;12.65;;
21128;SDS011;10722;51.910;8.352;2023-05-14T01:47:52;20.83;;;12.95;;
21128;SDS011;10722;51.910;8.352;2023-05-14T01:50:38;22.58;;;14.43;;
21128;SDS011;10722;51.910;8.352;2023-05-14T01:53:23;21.17;;;14.15;;
21128;SDS011;10722;51.910;8.352;2023-05-14T01:56:08;23.85;;;13.32;;
21128;SDS011;10722;51.910;8.352;2023-05-14T01:58:53;24.73;;;14.07;;
21128;SDS011;10722;51.910;8.352;2023-05-14T02:01:38;22.45;;;13.90;;
21128;SDS011;10722;51.910;8.352;2023-05-14T02:04:23;24.30;;;14.18;;
21128;SDS011;10722;51.910;8.352;2023-05-14T02:07:09;21.58;;;14.20;;
21128;SDS011;10722;51.910;8.352;2023-05-14T02:09:54;19.88;;;13.63;;
21128;SDS011;10722;51.910;8.352;2023-05-14T02:12:40;21.90;;;14.63;;
21128;SDS011;10722;51.910;8.352;2023-05-14T02:15:24;21.02;;;14.25;;
21128;SDS011;10722;51.910;8.352;2023-05-14T02:18:10;22.33;;;15.30;;
21128;SDS011;10722;51.910;8.352;2023-05-14T02:20:55;21.13;;;15.63;;
21128;SDS011;10722;51.910;8.352;2023-05-14T02:23:40;26.05;;;16.33;;
21128;SDS011;10722;51.910;8.352;2023-05-14T02:26:26;22.15;;;15.10;;
21128;SDS011;10722;51.910;8.352;2023-05-14T02:29:11;24.73;;;16.52;;
21128;SDS011;10722;51.910;8.352;2023-05-14T02:31:56;23.60;;;16.27;;
21128;SDS011;10722;51.910;8.352;2023-05-14T02:34:42;24.58;;;16.63;;
21128;SDS011;10722;51.910;8.352;2023-05-14T02:37:27;25.52;;;17.17;;
21128;SDS011;10722;51.910;8.352;2023-05-14T02:40:12;24.17;;;17.73;;
21128;SDS011;10722;51.910;8.352;2023-05-14T02:42:58;23.55;;;17.30;;
21128;SDS011;10722;51.910;8.352;2023-05-14T02:45:43;23.65;;;16.83;;
21128;SDS011;10722;51.910;8.352;2023-05-14T02:48:27;27.08;;;18.15;;
21128;SDS011;10722;51.910;8.352;2023-05-14T02:51:12;24.33;;;17.90;;
21128;SDS011;10722;51.910;8.352;2023-05-14T02:53:58;26.58;;;17.67;;
21128;SDS011;10722;51.910;8.352;2023-05-14T02:56:43;22.98;;;16.85;;
21128;SDS011;10722;51.910;8.352;2023-05-14T02:59:28;23.48;;;17.08;;
21128;SDS011;10722;51.910;8.352;2023-05-14T03:02:14;24.42;;;17.35;;
21128;SDS011;10722;51.910;8.352;2023-05-14T03:04:59;26.10;;;18.25;;
21128;SDS011;10722;51.910;8.352;2023-05-14T03:07:44;29.10;;;18.73;;
21128;SDS011;10722;51.910;8.352;2023-05-14T03:10:29;22.35;;;16.77;;
21128;SDS011;10722;51.910;8.352;2023-05-14T03:13:15;24.52;;;16.55;;
21128;SDS011;10722;51.910;8.352;2023-05-14T03:15:59;21.70;;;15.48;;
21128;SDS011;10722;51.910;8.352;2023-05-14T03:18:44;23.95;;;16.60;;
21128;SDS011;10722;51.910;8.352;2023-05-14T03:21:29;23.23;;;15.82;;
21128;SDS011;10722;51.910;8.352;2023-05-14T03:24:15;24.05;;;16.05;;
21128;SDS011;10722;51.910;8.352;2023-05-14T03:27:00;26.75;;;16.55;;
21128;SDS011;10722;51.910;8.352;2023-05-14T03:29:45;25.88;;;17.50;;
21128;SDS011;10722;51.910;8.352;2023-05-14T03:32:30;25.52;;;18.88;;
21128;SDS011;10722;51.910;8.352;2023-05-14T03:35:16;26.17;;;18.20;;
21128;SDS011;10722;51.910;8.352;2023-05-14T03:38:01;23.75;;;16.80;;
21128;SDS011;10722;51.910;8.352;2023-05-14T03:40:46;25.15;;;17.40;;
21128;SDS011;10722;51.910;8.352;2023-05-14T03:43:31;27.75;;;18.08;;
21128;SDS011;10722;51.910;8.352;2023-05-14T03:46:16;26.20;;;19.90;;
21128;SDS011;10722;51.910;8.352;2023-05-14T03:49:01;29.02;;;19.75;;
21128;SDS011;10722;51.910;8.352;2023-05-14T03:51:46;24.50;;;17.15;;
21128;SDS011;10722;51.910;8.352;2023-05-14T03:54:32;25.63;;;16.88;;
21128;SDS011;10722;51.910;8.352;2023-05-14T03:57:17;22.17;;;15.95;;
21128;SDS011;10722;51.910;8.352;2023-05-14T04:00:02;24.83;;;16.42;;
21128;SDS011;10722;51.910;8.352;2023-05-14T04:02:48;27.80;;;17.45;;
21128;SDS011;10722;51.910;8.352;2023-05-14T04:05:34;24.23;;;16.70;;
21128;SDS011;10722;51.910;8.352;2023-05-14T04:08:19;25.00;;;16.80;;
21128;SDS011;10722;51.910;8.352;2023-05-14T04:11:04;27.48;;;16.83;;
21128;SDS011;10722;51.910;8.352;2023-05-14T04:13:49;25.75;;;18.73;;
21128;SDS011;10722;51.910;8.352;2023-05-14T04:16:35;28.10;;;17.40;;
21128;SDS011;10722;51.910;8.352;2023-05-14T04:19:20;24.80;;;15.73;;
21128;SDS011;10722;51.910;8.352;2023-05-14T04:22:05;23.75;;;17.75;;
21128;SDS011;10722;51.910;8.352;2023-05-14T04:24:51;25.00;;;17.83;;
21128;SDS011;10722;51.910;8.352;2023-05-14T04:27:36;25.60;;;19.30;;
21128;SDS011;10722;51.910;8.352;2023-05-14T04:30:21;25.40;;;17.98;;
21128;SDS011;10722;51.910;8.352;2023-05-14T04:33:07;25.05;;;17.58;;
21128;SDS011;10722;51.910;8.352;2023-05-14T04:35:52;27.02;;;18.55;;
21128;SDS011;10722;51.910;8.352;2023-05-14T04:38:37;23.00;;;17.05;;
21128;SDS011;10722;51.910;8.352;2023-05-14T04:41:22;25.20;;;18.20;;
21128;SDS011;10722;51.910;8.352;2023-05-14T04:44:08;25.13;;;15.98;;
21128;SDS011;10722;51.910;8.352;2023-05-14T04:46:53;23.55;;;16.88;;
21128;SDS011;10722;51.910;8.352;2023-05-14T04:49:39;26.23;;;17.40;;
21128;SDS011;10722;51.910;8.352;2023-05-14T04:52:24;23.88;;;17.30;;
21128;SDS011;10722;51.910;8.352;2023-05-14T04:55:09;21.67;;;15.27;;
21128;SDS011;10722;51.910;8.352;2023-05-14T04:57:54;23.15;;;15.95;;
21128;SDS011;10722;51.910;8.352;2023-05-14T05:00:40;21.58;;;14.70;;
21128;SDS011;10722;51.910;8.352;2023-05-14T05:03:25;21.88;;;15.60;;
21128;SDS011;10722;51.910;8.352;2023-05-14T05:06:11;21.83;;;15.27;;
21128;SDS011;10722;51.910;8.352;2023-05-14T05:08:56;23.77;;;15.18;;
21128;SDS011;10722;51.910;8.352;2023-05-14T05:11:43;21.90;;;14.27;;
21128;SDS011;10722;51.910;8.352;2023-05-14T05:14:35;19.75;;;13.40;;
21128;SDS011;10722;51.910;8.352;2023-05-14T05:17:20;21.77;;;13.75;;
21128;SDS011;10722;51.910;8.352;2023-05-14T05:20:05;21.20;;;13.52;;
21128;SDS011;10722;51.910;8.352;2023-05-14T05:22:51;20.30;;;13.55;;
21128;SDS011;10722;51.910;8.352;2023-05-14T05:25:36;20.08;;;12.95;;
21128;SDS011;10722;51.910;8.352;2023-05-14T05:28:22;18.88;;;12.23;;
21128;SDS011;10722;51.910;8.352;2023-05-14T05:31:07;20.85;;;11.73;;
21128;SDS011;10722;51.910;8.352;2023-05-14T05:33:52;17.15;;;11.20;;
21128;SDS011;10722;51.910;8.352;2023-05-14T05:36:37;17.55;;;11.38;;
21128;SDS011;10722;51.910;8.352;2023-05-14T05:39:22;18.02;;;11.88;;
21128;SDS011;10722;51.910;8.352;2023-05-14T05:42:07;18.83;;;11.52;;
21128;SDS011;10722;51.910;8.352;2023-05-14T05:44:53;16.08;;;9.27;;
21128;SDS011;10722;51.910;8.352;2023-05-14T05:47:38;15.45;;;7.68;;
21128;SDS011;10722;51.910;8.352;2023-05-14T05:50:24;16.52;;;7.80;;
21128;SDS011;10722;51.910;8.352;2023-05-14T05:53:10;14.55;;;7.55;;
21128;SDS011;10722;51.910;8.352;2023-05-14T05:55:55;14.90;;;7.47;;
21128;SDS011;10722;51.910;8.352;2023-05-14T05:58:40;13.60;;;7.18;;
21128;SDS011;10722;51.910;8.352;2023-05-14T06:01:25;13.88;;;7.38;;
21128;SDS011;10722;51.910;8.352;2023-05-14T06:04:10;14.35;;;7.30;;
21128;SDS011;10722;51.910;8.352;2023-05-14T06:06:56;13.52;;;7.13;;
21128;SDS011;10722;51.910;8.352;2023-05-14T06:09:41;14.73;;;6.72;;
21128;SDS011;10722;51.910;8.352;2023-05-14T06:12:26;14.00;;;6.70;;
21128;SDS011;10722;51.910;8.352;2023-05-14T06:15:13;14.63;;;6.68;;
21128;SDS011;10722;51.910;8.352;2023-05-14T06:17:59;14.25;;;6.63;;
21128;SDS011;10722;51.910;8.352;2023-05-14T06:20:44;14.38;;;6.70;;
21128;SDS011;10722;51.910;8.352;2023-05-14T06:23:29;13.07;;;5.95;;
21128;SDS011;10722;51.910;8.352;2023-05-14T06:26:14;14.23;;;6.18;;
21128;SDS011;10722;51.910;8.352;2023-05-14T06:28:59;13.50;;;6.18;;
21128;SDS011;10722;51.910;8.352;2023-05-14T06:31:44;11.55;;;6.13;;
21128;SDS011;10722;51.910;8.352;2023-05-14T06:34:30;14.00;;;6.50;;
21128;SDS011;10722;51.910;8.352;2023-05-14T06:37:15;12.00;;;5.90;;
21128;SDS011;10722;51.910;8.352;2023-05-14T06:40:00;11.63;;;5.63;;
21128;SDS011;10722;51.910;8.352;2023-05-14T06:42:46;13.05;;;5.95;;
21128;SDS011;10722;51.910;8.352;2023-05-14T06:45:30;15.30;;;6.38;;
21128;SDS011;10722;51.910;8.352;2023-05-14T06:48:17;12.50;;;6.10;;
21128;SDS011;10722;51.910;8.352;2023-05-14T06:51:03;12.00;;;5.80;;
21128;SDS011;10722;51.910;8.352;2023-05-14T06:53:48;11.77;;;5.85;;
21128;SDS011;10722;51.910;8.352;2023-05-14T06:56:34;14.20;;;5.65;;
21128;SDS011;10722;51.910;8.352;2023-05-14T06:59:19;12.65;;;6.22;;
21128;SDS011;10722;51.910;8.352;2023-05-14T07:02:04;13.55;;;5.55;;
21128;SDS011;10722;51.910;8.352;2023-05-14T07:04:50;13.57;;;6.07;;
21128;SDS011;10722;51.910;8.352;2023-05-14T07:07:35;13.93;;;6.07;;
21128;SDS011;10722;51.910;8.352;2023-05-14T07:10:20;13.52;;;6.10;;
21128;SDS011;10722;51.910;8.352;2023-05-14T07:13:06;11.95;;;5.57;;
21128;SDS011;10722;51.910;8.352;2023-05-14T07:15:52;11.43;;;5.53;;
21128;SDS011;10722;51.910;8.352;2023-05-14T07:18:37;11.73;;;5.35;;
21128;SDS011;10722;51.910;8.352;2023-05-14T07:21:23;10.35;;;5.18;;
21128;SDS011;10722;51.910;8.352;2023-05-14T07:24:08;11.85;;;5.47;;
21128;SDS011;10722;51.910;8.352;2023-05-14T07:26:53;13.07;;;5.60;;
21128;SDS011;10722;51.910;8.352;2023-05-14T07:29:38;11.48;;;5.50;;
21128;SDS011;10722;51.910;8.352;2023-05-14T07:32:24;11.43;;;5.80;;
21128;SDS011;10722;51.910;8.352;2023-05-14T07:35:09;11.88;;;5.32;;
21128;SDS011;10722;51.910;8.352;2023-05-14T07:37:54;12.65;;;6.10;;
21128;SDS011;10722;51.910;8.352;2023-05-14T07:40:39;12.18;;;5.60;;
21128;SDS011;10722;51.910;8.352;2023-05-14T07:43:25;12.07;;;5.50;;
21128;SDS011;10722;51.910;8.352;2023-05-14T07:46:10;11.65;;;5.72;;
21128;SDS011;10722;51.910;8.352;2023-05-14T07:48:55;13.30;;;6.40;;
21128;SDS011;10722;51.910;8.352;2023-05-14T07:51:39;13.63;;;5.28;;
21128;SDS011;10722;51.910;8.352;2023-05-14T07:54:25;13.88;;;6.30;;
21128;SDS011;10722;51.910;8.352;2023-05-14T07:57:10;12.68;;;6.25;;
21128;SDS011;10722;51.910;8.352;2023-05-14T07:59:55;12.80;;;6.07;;
21128;SDS011;10722;51.910;8.352;2023-05-14T08:02:41;14.75;;;6.68;;
21128;SDS011;10722;51.910;8.352;2023-05-14T08:05:26;14.93;;;6.90;;
21128;SDS011;10722;51.910;8.352;2023-05-14T08:08:12;12.80;;;6.93;;
21128;SDS011;10722;51.910;8.352;2023-05-14T08:10:57;14.13;;;6.65;;
21128;SDS011;10722;51.910;8.352;2023-05-14T08:13:42;14.15;;;6.05;;
21128;SDS011;10722;51.910;8.352;2023-05-14T08:16:28;15.43;;;6.10;;
21128;SDS011;10722;51.910;8.352;2023-05-14T08:19:13;12.05;;;5.63;;
21128;SDS011;10722;51.910;8.352;2023-05-14T08:22:00;14.05;;;5.68;;
21128;SDS011;10722;51.910;8.352;2023-05-14T08:24:45;11.15;;;5.28;;
21128;SDS011;10722;51.910;8.352;2023-05-14T08:27:30;12.98;;;5.82;;
21128;SDS011;10722;51.910;8.352;2023-05-14T08:30:16;11.90;;;6.03;;
21128;SDS011;10722;51.910;8.352;2023-05-14T08:33:01;13.27;;;5.43;;
21128;SDS011;10722;51.910;8.352;2023-05-14T08:35:46;10.98;;;4.50;;
21128;SDS011;10722;51.910;8.352;2023-05-14T08:38:34;10.55;;;5.07;;
21128;SDS011;10722;51.910;8.352;2023-05-14T08:41:19;11.00;;;4.75;;
21128;SDS011;10722;51.910;8.352;2023-05-14T08:44:05;10.25;;;4.32;;
21128;SDS011;10722;51.910;8.352;2023-05-14T08:46:56;11.20;;;4.95;;
21128;SDS011;10722;51.910;8.352;2023-05-14T08:49:42;10.85;;;4.85;;
21128;SDS011;10722;51.910;8.352;2023-05-14T08:52:31;10.40;;;4.75;;
21128;SDS011;10722;51.910;8.352;2023-05-14T08:55:16;9.65;;;4.50;;
21128;SDS011;10722;51.910;8.352;2023-05-14T08:58:02;14.93;;;4.60;;
21128;SDS011;10722;51.910;8.352;2023-05-14T09:00:48;9.25;;;4.00;;
21128;SDS011;10722;51.910;8.352;2023-05-14T09:03:33;8.98;;;3.72;;
21128;SDS011;10722;51.910;8.352;2023-05-14T09:06:20;9.45;;;3.70;;
21128;SDS011;10722;51.910;8.352;2023-05-14T09:09:07;8.32;;;3.80;;
21128;SDS011;10722;51.910;8.352;2023-05-14T09:11:53;8.75;;;3.63;;
21128;SDS011;10722;51.910;8.352;2023-05-14T09:14:38;8.43;;;3.58;;
21128;SDS011;10722;51.910;8.352;2023-05-14T09:17:24;5.60;;;3.03;;
21128;SDS011;10722;51.910;8.352;2023-05-14T09:20:11;5.88;;;2.90;;
21128;SDS011;10722;51.910;8.352;2023-05-14T09:22:57;7.25;;;2.90;;
21128;SDS011;10722;51.910;8.352;2023-05-14T09:25:43;5.80;;;2.95;;
21128;SDS011;10722;51.910;8.352;2023-05-14T09:28:28;6.47;;;2.90;;
21128;SDS011;10722;51.910;8.352;2023-05-14T09:31:14;6.28;;;2.90;;
21128;SDS011;10722;51.910;8.352;2023-05-14T09:33:59;7.13;;;2.92;;
21128;SDS011;10722;51.910;8.352;2023-05-14T09:36:44;6.20;;;2.70;;
21128;SDS011;10722;51.910;8.352;2023-05-14T09:39:30;6.85;;;2.38;;
21128;SDS011;10722;51.910;8.352;2023-05-14T09:42:16;6.00;;;2.50;;
21128;SDS011;10722;51.910;8.352;2023-05-14T09:45:00;6.88;;;2.70;;
21128;SDS011;10722;51.910;8.352;2023-05-14T09:47:46;7.07;;;2.97;;
21128;SDS011;10722;51.910;8.352;2023-05-14T09:50:31;4.90;;;2.42;;
21128;SDS011;10722;51.910;8.352;2023-05-14T09:53:16;4.82;;;2.25;;
21128;SDS011;10722;51.910;8.352;2023-05-14T09:56:02;6.90;;;3.03;;
21128;SDS011;10722;51.910;8.352;2023-05-14T09:58:47;5.88;;;2.88;;
21128;SDS011;10722;51.910;8.352;2023-05-14T10:01:33;6.68;;;3.10;;
21128;SDS011;10722;51.910;8.352;2023-05-14T10:04:18;6.60;;;2.50;;
21128;SDS011;10722;51.910;8.352;2023-05-14T10:07:04;5.90;;;2.65;;
21128;SDS011;10722;51.910;8.352;2023-05-14T10:09:51;7.60;;;2.90;;
21128;SDS011;10722;51.910;8.352;2023-05-14T10:12:45;8.68;;;2.72;;
21128;SDS011;10722;51.910;8.352;2023-05-14T10:15:38;7.43;;;2.95;;
21128;SDS011;10722;51.910;8.352;2023-05-14T10:18:31;5.22;;;2.55;;
21128;SDS011;10722;51.910;8.352;2023-05-14T10:21:20;7.43;;;2.58;;
21128;SDS011;10722;51.910;8.352;2023-05-14T10:24:06;6.70;;;2.20;;
21128;SDS011;10722;51.910;8.352;2023-05-14T10:26:52;5.78;;;2.55;;
21128;SDS011;10722;51.910;8.352;2023-05-14T10:29:38;5.20;;;2.35;;
21128;SDS011;10722;51.910;8.352;2023-05-14T10:32:23;4.97;;;2.20;;
21128;SDS011;10722;51.910;8.352;2023-05-14T10:35:16;5.38;;;2.30;;
21128;SDS011;10722;51.910;8.352;2023-05-14T10:38:06;6.57;;;2.75;;
21128;SDS011;10722;51.910;8.352;2023-05-14T10:40:55;5.85;;;2.38;;
21128;SDS011;10722;51.910;8.352;2023-05-14T10:43:43;5.82;;;2.58;;
21128;SDS011;10722;51.910;8.352;2023-05-14T10:46:28;5.82;;;2.25;;
21128;SDS011;10722;51.910;8.352;2023-05-14T10:49:13;6.82;;;2.42;;
21128;SDS011;10722;51.910;8.352;2023-05-14T10:52:07;5.82;;;2.67;;
21128;SDS011;10722;51.910;8.352;2023-05-14T10:54:53;5.55;;;2.65;;
21128;SDS011;10722;51.910;8.352;2023-05-14T10:57:41;6.97;;;2.20;;
21128;SDS011;10722;51.910;8.352;2023-05-14T11:00:27;5.53;;;2.45;;
21128;SDS011;10722;51.910;8.352;2023-05-14T11:03:12;5.85;;;2.50;;
21128;SDS011;10722;51.910;8.352;2023-05-14T11:06:01;4.47;;;2.17;;
21128;SDS011;10722;51.910;8.352;2023-05-14T11:08:47;6.45;;;2.70;;
21128;SDS011;10722;51.910;8.352;2023-05-14T11:11:35;7.95;;;3.03;;
21128;SDS011;10722;51.910;8.352;2023-05-14T11:14:21;5.53;;;2.38;;
21128;SDS011;10722;51.910;8.352;2023-05-14T11:17:06;7.68;;;2.85;;
21128;SDS011;10722;51.910;8.352;2023-05-14T11:19:52;4.88;;;2.50;;
21128;SDS011;10722;51.910;8.352;2023-05-14T11:22:38;7.30;;;2.63;;
21128;SDS011;10722;51.910;8.352;2023-05-14T11:25:25;7.30;;;2.60;;
21128;SDS011;10722;51.910;8.352;2023-05-14T11:28:10;5.60;;;2.67;;
21128;SDS011;10722;51.910;8.352;2023-05-14T11:30:55;6.80;;;2.60;;
21128;SDS011;10722;51.910;8.352;2023-05-14T11:33:40;8.65;;;2.78;;
21128;SDS011;10722;51.910;8.352;2023-05-14T11:36:25;6.22;;;2.83;;
21128;SDS011;10722;51.910;8.352;2023-05-14T11:39:16;5.15;;;2.65;;
21128;SDS011;10722;51.910;8.352;2023-05-14T11:42:02;8.85;;;2.90;;
21128;SDS011;10722;51.910;8.352;2023-05-14T11:44:49;6.15;;;2.70;;
21128;SDS011;10722;51.910;8.352;2023-05-14T11:47:35;7.35;;;2.80;;
21128;SDS011;10722;51.910;8.352;2023-05-14T11:50:21;6.43;;;3.05;;
21128;SDS011;10722;51.910;8.352;2023-05-14T11:53:07;8.02;;;3.08;;
21128;SDS011;10722;51.910;8.352;2023-05-14T11:55:53;6.00;;;2.90;;
21128;SDS011;10722;51.910;8.352;2023-05-14T11:58:38;7.55;;;2.90;;
21128;SDS011;10722;51.910;8.352;2023-05-14T12:01:23;6.50;;;2.83;;
21128;SDS011;10722;51.910;8.352;2023-05-14T12:04:09;6.28;;;2.60;;
21128;SDS011;10722;51.910;8.352;2023-05-14T12:06:56;4.47;;;2.45;;
21128;SDS011;10722;51.910;8.352;2023-05-14T12:09:46;6.55;;;2.67;;
21128;SDS011;10722;51.910;8.352;2023-05-14T12:12:35;5.30;;;2.55;;
21128;SDS011;10722;51.910;8.352;2023-05-14T12:15:23;6.75;;;2.47;;
21128;SDS011;10722;51.910;8.352;2023-05-14T12:18:08;6.07;;;2.50;;
21128;SDS011;10722;51.910;8.352;2023-05-14T12:21:08;8.05;;;3.05;;
21128;SDS011;10722;51.910;8.352;2023-05-14T12:23:57;6.30;;;2.80;;
21128;SDS011;10722;51.910;8.352;2023-05-14T12:26:43;6.55;;;2.90;;
21128;SDS011;10722;51.910;8.352;2023-05-14T12:29:29;6.25;;;2.90;;
21128;SDS011;10722;51.910;8.352;2023-05-14T12:32:14;6.88;;;2.90;;
21128;SDS011;10722;51.910;8.352;2023-05-14T12:34:59;10.57;;;3.20;;
21128;SDS011;10722;51.910;8.352;2023-05-14T12:37:44;7.05;;;2.90;;
21128;SDS011;10722;51.910;8.352;2023-05-14T12:40:30;7.40;;;3.22;;
21128;SDS011;10722;51.910;8.352;2023-05-14T12:43:15;8.00;;;3.05;;
21128;SDS011;10722;51.910;8.352;2023-05-14T12:46:00;6.65;;;3.17;;
21128;SDS011;10722;51.910;8.352;2023-05-14T12:48:45;7.97;;;3.20;;
21128;SDS011;10722;51.910;8.352;2023-05-14T12:51:30;10.88;;;3.80;;
21128;SDS011;10722;51.910;8.352;2023-05-14T12:54:15;8.52;;;3.17;;
21128;SDS011;10722;51.910;8.352;2023-05-14T12:57:00;8.52;;;3.75;;
21128;SDS011;10722;51.910;8.352;2023-05-14T12:59:45;10.02;;;3.40;;
21128;SDS011;10722;51.910;8.352;2023-05-14T13:02:30;6.38;;;2.75;;
21128;SDS011;10722;51.910;8.352;2023-05-14T13:05:15;8.73;;;2.90;;
21128;SDS011;10722;51.910;8.352;2023-05-14T13:08:00;7.03;;;2.80;;
21128;SDS011;10722;51.910;8.352;2023-05-14T13:10:46;7.07;;;2.90;;
21128;SDS011;10722;51.910;8.352;2023-05-14T13:13:32;8.40;;;3.45;;
21128;SDS011;10722;51.910;8.352;2023-05-14T13:16:17;10.40;;;3.20;;
21128;SDS011;10722;51.910;8.352;2023-05-14T13:19:02;9.25;;;3.20;;
21128;SDS011;10722;51.910;8.352;2023-05-14T13:21:47;8.18;;;3.10;;
21128;SDS011;10722;51.910;8.352;2023-05-14T13:24:33;5.82;;;2.88;;
21128;SDS011;10722;51.910;8.352;2023-05-14T13:27:18;6.65;;;2.90;;
21128;SDS011;10722;51.910;8.352;2023-05-14T13:30:04;9.70;;;2.85;;
21128;SDS011;10722;51.910;8.352;2023-05-14T13:32:49;6.05;;;2.83;;
21128;SDS011;10722;51.910;8.352;2023-05-14T13:35:35;6.40;;;3.00;;
21128;SDS011;10722;51.910;8.352;2023-05-14T13:38:20;6.88;;;3.10;;
21128;SDS011;10722;51.910;8.352;2023-05-14T13:41:05;6.10;;;2.97;;
21128;SDS011;10722;51.910;8.352;2023-05-14T13:43:50;8.45;;;3.00;;
21128;SDS011;10722;51.910;8.352;2023-05-14T13:46:36;10.25;;;3.22;;
21128;SDS011;10722;51.910;8.352;2023-05-14T13:49:21;6.45;;;3.00;;
21128;SDS011;10722;51.910;8.352;2023-05-14T13:52:07;6.57;;;2.67;;
21128;SDS011;10722;51.910;8.352;2023-05-14T13:54:52;6.50;;;3.03;;
21128;SDS011;10722;51.910;8.352;2023-05-14T13:57:38;5.60;;;2.70;;
21128;SDS011;10722;51.910;8.352;2023-05-14T14:00:24;6.40;;;2.50;;
21128;SDS011;10722;51.910;8.352;2023-05-14T14:03:08;6.28;;;2.50;;
21128;SDS011;10722;51.910;8.352;2023-05-14T14:05:54;6.50;;;2.28;;
21128;SDS011;10722;51.910;8.352;2023-05-14T14:08:39;4.22;;;2.17;;
21128;SDS011;10722;51.910;8.352;2023-05-14T14:11:24;6.07;;;2.35;;
21128;SDS011;10722;51.910;8.352;2023-05-14T14:14:09;6.20;;;2.47;;
21128;SDS011;10722;51.910;8.352;2023-05-14T14:16:54;5.72;;;2.40;;
21128;SDS011;10722;51.910;8.352;2023-05-14T14:19:46;4.85;;;2.38;;
21128;SDS011;10722;51.910;8.352;2023-05-14T14:22:31;4.95;;;2.30;;
21128;SDS011;10722;51.910;8.352;2023-05-14T14:25:16;4.40;;;2.45;;
21128;SDS011;10722;51.910;8.352;2023-05-14T14:28:02;6.38;;;2.60;;
21128;SDS011;10722;51.910;8.352;2023-05-14T14:30:48;6.13;;;2.47;;
21128;SDS011;10722;51.910;8.352;2023-05-14T14:33:34;5.57;;;2.60;;
21128;SDS011;10722;51.910;8.352;2023-05-14T14:36:19;6.53;;;2.97;;
21128;SDS011;10722;51.910;8.352;2023-05-14T14:39:04;5.93;;;2.70;;
21128;SDS011;10722;51.910;8.352;2023-05-14T14:41:50;5.22;;;2.60;;
21128;SDS011;10722;51.910;8.352;2023-05-14T14:44:35;7.55;;;3.08;;
21128;SDS011;10722;51.910;8.352;2023-05-14T14:47:20;9.30;;;3.38;;
21128;SDS011;10722;51.910;8.352;2023-05-14T14:50:05;8.63;;;3.25;;
21128;SDS011;10722;51.910;8.352;2023-05-14T14:52:51;6.88;;;2.80;;
21128;SDS011;10722;51.910;8.352;2023-05-14T14:55:37;7.15;;;2.78;;
21128;SDS011;10722;51.910;8.352;2023-05-14T14:58:22;6.35;;;2.90;;
21128;SDS011;10722;51.910;8.352;2023-05-14T15:01:07;5.18;;;2.65;;
21128;SDS011;10722;51.910;8.352;2023-05-14T15:03:52;7.15;;;2.72;;
21128;SDS011;10722;51.910;8.352;2023-05-14T15:06:38;7.22;;;3.20;;
21128;SDS011;10722;51.910;8.352;2023-05-14T15:09:23;6.78;;;2.88;;
21128;SDS011;10722;51.910;8.352;2023-05-14T15:12:07;8.07;;;2.60;;
21128;SDS011;10722;51.910;8.352;2023-05-14T15:14:53;5.32;;;2.70;;
21128;SDS011;10722;51.910;8.352;2023-05-14T15:17:38;7.05;;;2.90;;
21128;SDS011;10722;51.910;8.352;2023-05-14T15:20:23;6.85;;;2.85;;
21128;SDS011;10722;51.910;8.352;2023-05-14T15:23:09;6.15;;;2.58;;
21128;SDS011;10722;51.910;8.352;2023-05-14T15:25:54;5.57;;;2.35;;
21128;SDS011;10722;51.910;8.352;2023-05-14T15:28:39;6.25;;;2.60;;
21128;SDS011;10722;51.910;8.352;2023-05-14T15:31:24;9.68;;;3.60;;
21128;SDS011;10722;51.910;8.352;2023-05-14T15:34:09;7.07;;;2.80;;
21128;SDS011;10722;51.910;8.352;2023-05-14T15:36:54;8.93;;;3.17;;
21128;SDS011;10722;51.910;8.352;2023-05-14T15:39:39;6.45;;;2.70;;
21128;SDS011;10722;51.910;8.352;2023-05-14T15:42:25;7.07;;;2.70;;
21128;SDS011;10722;51.910;8.352;2023-05-14T15:45:13;6.57;;;2.72;;
21128;SDS011;10722;51.910;8.352;2023-05-14T15:47:58;8.32;;;3.30;;
21128;SDS011;10722;51.910;8.352;2023-05-14T15:50:43;8.20;;;3.00;;
21128;SDS011;10722;51.910;8.352;2023-05-14T15:53:34;6.00;;;2.70;;
21128;SDS011;10722;51.910;8.352;2023-05-14T15:56:19;8.30;;;2.67;;
21128;SDS011;10722;51.910;8.352;2023-05-14T15:59:06;8.45;;;2.72;;
21128;SDS011;10722;51.910;8.352;2023-05-14T16:01:51;5.85;;;2.70;;
21128;SDS011;10722;51.910;8.352;2023-05-14T16:04:36;8.63;;;3.30;;
21128;SDS011;10722;51.910;8.352;2023-05-14T16:07:21;8.13;;;3.15;;
21128;SDS011;10722;51.910;8.352;2023-05-14T16:10:07;8.30;;;2.95;;
21128;SDS011;10722;51.910;8.352;2023-05-14T16:12:52;6.45;;;2.67;;
21128;SDS011;10722;51.910;8.352;2023-05-14T16:15:38;9.10;;;3.03;;
21128;SDS011;10722;51.910;8.352;2023-05-14T16:18:23;9.00;;;3.00;;
21128;SDS011;10722;51.910;8.352;2023-05-14T16:21:09;8.40;;;3.00;;
21128;SDS011;10722;51.910;8.352;2023-05-14T16:23:54;8.50;;;3.40;;
21128;SDS011;10722;51.910;8.352;2023-05-14T16:26:39;6.55;;;2.70;;
21128;SDS011;10722;51.910;8.352;2023-05-14T16:29:25;8.27;;;3.05;;